sensor_id;sensor_type;location;lat;lon;timestamp;pressure;altitude;pressure_sealevel;temperature;humidity
63181;BME280;49273;37.772;-122.432;2022-07-01T00:02:07;101111.65;;;20.43;52.33
63181;BME280;49273;37.772;-122.432;2022-07-01T00:04:36;101111.23;;;20.64;51.83
63181;BME280;49273;37.772;-122.432;2022-07-01T00:07:04;101115.48;;;20.15;53.31
63181;BME280;49273;37.772;-122.432;2022-07-01T00:09:32;101117.98;;;19.85;53.86
63181;BME280;49273;37.772;-122.432;2022-07-01T00:12:00;101109.29;;;19.89;54.05
63181;BME280;49273;37.772;-122.432;2022-07-01T00:14:29;101107.64;;;20.13;53.22
63181;BME280;49273;37.772;-122.432;2022-07-01T00:16:57;101104.11;;;21.27;50.77
63181;BME280;49273;37.772;-122.432;2022-07-01T00:19:25;101113.02;;;21.26;50.32
63181;BME280;49273;37.772;-122.432;2022-07-01T00:21:54;101104.60;;;21.76;49.04
63181;BME280;49273;37.772;-122.432;2022-07-01T00:24:22;101098.14;;;21.17;50.49
63181;BME280;49273;37.772;-122.432;2022-07-01T00:26:49;101110.66;;;22.29;47.49
63181;BME280;49273;37.772;-122.432;2022-07-01T00:29:18;101107.77;;;22.11;47.64
63181;BME280;49273;37.772;-122.432;2022-07-01T00:31:45;101110.03;;;22.29;47.48
63181;BME280;49273;37.772;-122.432;2022-07-01T00:34:13;101102.97;;;21.23;49.90
63181;BME280;49273;37.772;-122.432;2022-07-01T00:36:41;101108.10;;;21.36;49.67
63181;BME280;49273;37.772;-122.432;2022-07-01T00:39:10;101096.08;;;21.91;48.82
63181;BME280;49273;37.772;-122.432;2022-07-01T00:41:38;101086.24;;;22.20;47.58
63181;BME280;49273;37.772;-122.432;2022-07-01T00:44:06;101083.66;;;22.91;46.30
63181;BME280;49273;37.772;-122.432;2022-07-01T00:46:42;101086.52;;;23.29;45.08
63181;BME280;49273;37.772;-122.432;2022-07-01T00:49:11;101071.28;;;22.41;46.98
63181;BME280;49273;37.772;-122.432;2022-07-01T00:51:39;101072.63;;;23.62;44.34
63181;BME280;49273;37.772;-122.432;2022-07-01T00:54:08;101062.34;;;22.10;47.53
63181;BME280;49273;37.772;-122.432;2022-07-01T00:56:36;101057.56;;;22.08;48.12
63181;BME280;49273;37.772;-122.432;2022-07-01T00:59:04;101060.47;;;21.85;48.53
63181;BME280;49273;37.772;-122.432;2022-07-01T01:01:32;101057.94;;;21.59;49.14
63181;BME280;49273;37.772;-122.432;2022-07-01T01:04:01;101056.36;;;21.39;49.75
63181;BME280;49273;37.772;-122.432;2022-07-01T01:06:30;101061.44;;;21.43;49.49
63181;BME280;49273;37.772;-122.432;2022-07-01T01:08:58;101061.96;;;21.32;49.59
63181;BME280;49273;37.772;-122.432;2022-07-01T01:11:27;101053.18;;;20.47;51.90
63181;BME280;49273;37.772;-122.432;2022-07-01T01:13:55;101050.77;;;20.14;53.04
63181;BME280;49273;37.772;-122.432;2022-07-01T01:16:24;101051.37;;;19.76;54.23
63181;BME280;49273;37.772;-122.432;2022-07-01T01:18:52;101051.74;;;20.63;52.16
63181;BME280;49273;37.772;-122.432;2022-07-01T01:21:21;101043.94;;;20.39;52.59
63181;BME280;49273;37.772;-122.432;2022-07-01T01:23:49;101044.77;;;19.82;54.17
63181;BME280;49273;37.772;-122.432;2022-07-01T01:26:18;101038.66;;;18.59;58.21
63181;BME280;49273;37.772;-122.432;2022-07-01T01:28:47;101042.41;;;17.45;61.80
63181;BME280;49273;37.772;-122.432;2022-07-01T01:31:16;101035.38;;;17.57;61.97
63181;BME280;49273;37.772;-122.432;2022-07-01T01:33:45;101043.34;;;17.38;62.76
63181;BME280;49273;37.772;-122.432;2022-07-01T01:36:13;101030.47;;;17.50;62.52
63181;BME280;49273;37.772;-122.432;2022-07-01T01:38:41;101023.63;;;17.10;64.22
63181;BME280;49273;37.772;-122.432;2022-07-01T01:41:08;101024.73;;;16.71;65.17
63181;BME280;49273;37.772;-122.432;2022-07-01T01:43:37;101018.14;;;16.47;66.91
63181;BME280;49273;37.772;-122.432;2022-07-01T01:46:04;101020.92;;;16.33;67.48
63181;BME280;49273;37.772;-122.432;2022-07-01T01:48:33;101026.77;;;15.92;68.68
63181;BME280;49273;37.772;-122.432;2022-07-01T01:51:00;101022.68;;;15.72;70.14
63181;BME280;49273;37.772;-122.432;2022-07-01T01:53:29;101020.46;;;16.25;68.39
63181;BME280;49273;37.772;-122.432;2022-07-01T01:55:57;101023.06;;;15.78;69.91
63181;BME280;49273;37.772;-122.432;2022-07-01T01:58:26;101023.40;;;15.82;70.34
63181;BME280;49273;37.772;-122.432;2022-07-01T02:00:54;101022.07;;;15.49;71.49
63181;BME280;49273;37.772;-122.432;2022-07-01T02:03:22;101021.36;;;15.70;70.89
63181;BME280;49273;37.772;-122.432;2022-07-01T02:05:50;101027.42;;;15.41;72.27
63181;BME280;49273;37.772;-122.432;2022-07-01T02:08:19;101026.46;;;15.50;72.04
63181;BME280;49273;37.772;-122.432;2022-07-01T02:10:47;101021.60;;;15.31;72.70
63181;BME280;49273;37.772;-122.432;2022-07-01T02:13:15;101026.25;;;15.27;72.74
63181;BME280;49273;37.772;-122.432;2022-07-01T02:15:42;101021.97;;;15.17;73.38
63181;BME280;49273;37.772;-122.432;2022-07-01T02:18:11;101023.98;;;15.00;73.95
63181;BME280;49273;37.772;-122.432;2022-07-01T02:20:38;101014.01;;;15.06;74.19
63181;BME280;49273;37.772;-122.432;2022-07-01T02:23:06;101018.56;;;14.78;75.60
63181;BME280;49273;37.772;-122.432;2022-07-01T02:25:34;101018.72;;;14.72;75.59
63181;BME280;49273;37.772;-122.432;2022-07-01T02:28:04;101025.46;;;14.84;75.58
63181;BME280;49273;37.772;-122.432;2022-07-01T02:30:32;101019.00;;;14.81;75.81
63181;BME280;49273;37.772;-122.432;2022-07-01T02:33:01;101016.68;;;14.90;75.31
63181;BME280;49273;37.772;-122.432;2022-07-01T02:35:29;101018.50;;;14.92;75.38
63181;BME280;49273;37.772;-122.432;2022-07-01T02:37:57;101021.40;;;14.76;75.35
63181;BME280;49273;37.772;-122.432;2022-07-01T02:40:26;101035.79;;;14.80;75.82
63181;BME280;49273;37.772;-122.432;2022-07-01T02:42:53;101033.63;;;14.82;75.56
63181;BME280;49273;37.772;-122.432;2022-07-01T02:45:22;101047.97;;;14.52;76.62
63181;BME280;49273;37.772;-122.432;2022-07-01T02:47:49;101042.63;;;14.66;76.35
63181;BME280;49273;37.772;-122.432;2022-07-01T02:50:18;101047.93;;;14.55;76.85
63181;BME280;49273;37.772;-122.432;2022-07-01T02:52:46;101050.03;;;15.04;75.19
63181;BME280;49273;37.772;-122.432;2022-07-01T02:55:14;101052.09;;;14.43;77.32
63181;BME280;49273;37.772;-122.432;2022-07-01T02:57:43;101052.50;;;14.59;76.93
63181;BME280;49273;37.772;-122.432;2022-07-01T03:00:13;101047.55;;;14.71;76.66
63181;BME280;49273;37.772;-122.432;2022-07-01T03:02:42;101058.35;;;14.58;76.75
63181;BME280;49273;37.772;-122.432;2022-07-01T03:05:09;101054.22;;;14.46;77.71
63181;BME280;49273;37.772;-122.432;2022-07-01T03:07:38;101046.32;;;14.65;76.97
63181;BME280;49273;37.772;-122.432;2022-07-01T03:10:07;101033.82;;;14.36;77.65
63181;BME280;49273;37.772;-122.432;2022-07-01T03:12:35;101039.14;;;14.30;78.11
63181;BME280;49273;37.772;-122.432;2022-07-01T03:15:05;101039.08;;;14.41;78.28
63181;BME280;49273;37.772;-122.432;2022-07-01T03:17:35;101038.34;;;14.35;78.43
63181;BME280;49273;37.772;-122.432;2022-07-01T03:20:05;101041.15;;;14.35;78.70
63181;BME280;49273;37.772;-122.432;2022-07-01T03:22:34;101038.66;;;14.10;79.26
63181;BME280;49273;37.772;-122.432;2022-07-01T03:25:03;101035.64;;;14.19;79.11
63181;BME280;49273;37.772;-122.432;2022-07-01T03:27:32;101037.90;;;14.46;78.10
63181;BME280;49273;37.772;-122.432;2022-07-01T03:30:01;101038.02;;;14.14;79.46
63181;BME280;49273;37.772;-122.432;2022-07-01T03:32:30;101034.39;;;14.09;79.64
63181;BME280;49273;37.772;-122.432;2022-07-01T03:34:58;101036.97;;;14.26;79.46
63181;BME280;49273;37.772;-122.432;2022-07-01T03:37:26;101034.67;;;14.10;79.81
63181;BME280;49273;37.772;-122.432;2022-07-01T03:39:54;101039.15;;;14.08;79.94
63181;BME280;49273;37.772;-122.432;2022-07-01T03:42:21;101033.41;;;13.99;80.13
63181;BME280;49273;37.772;-122.432;2022-07-01T03:44:49;101032.14;;;13.78;81.57
63181;BME280;49273;37.772;-122.432;2022-07-01T03:47:17;101038.10;;;13.98;80.63
63181;BME280;49273;37.772;-122.432;2022-07-01T03:49:45;101037.05;;;13.84;81.31
63181;BME280;49273;37.772;-122.432;2022-07-01T03:52:13;101036.56;;;14.01;81.01
63181;BME280;49273;37.772;-122.432;2022-07-01T03:54:41;101029.08;;;14.07;81.12
63181;BME280;49273;37.772;-122.432;2022-07-01T03:57:10;101029.72;;;13.80;81.89
63181;BME280;49273;37.772;-122.432;2022-07-01T03:59:39;101033.97;;;13.99;81.39
63181;BME280;49273;37.772;-122.432;2022-07-01T04:02:08;101036.99;;;13.91;81.38
63181;BME280;49273;37.772;-122.432;2022-07-01T04:04:36;101039.56;;;13.94;81.40
63181;BME280;49273;37.772;-122.432;2022-07-01T04:07:06;101040.01;;;13.99;81.38
63181;BME280;49273;37.772;-122.432;2022-07-01T04:09:34;101043.91;;;14.37;79.93
63181;BME280;49273;37.772;-122.432;2022-07-01T04:12:04;101050.83;;;13.99;81.03
63181;BME280;49273;37.772;-122.432;2022-07-01T04:14:31;101041.36;;;14.22;80.41
63181;BME280;49273;37.772;-122.432;2022-07-01T04:16:59;101050.24;;;14.31;79.84
63181;BME280;49273;37.772;-122.432;2022-07-01T04:19:28;101061.91;;;14.20;80.35
63181;BME280;49273;37.772;-122.432;2022-07-01T04:21:57;101060.95;;;14.09;80.82
63181;BME280;49273;37.772;-122.432;2022-07-01T04:24:24;101060.63;;;13.75;82.34
63181;BME280;49273;37.772;-122.432;2022-07-01T04:26:52;101053.94;;;14.19;80.97
63181;BME280;49273;37.772;-122.432;2022-07-01T04:29:20;101052.52;;;14.17;80.82
63181;BME280;49273;37.772;-122.432;2022-07-01T04:31:48;101057.06;;;14.38;79.89
63181;BME280;49273;37.772;-122.432;2022-07-01T04:34:17;101055.73;;;14.25;80.23
63181;BME280;49273;37.772;-122.432;2022-07-01T04:36:45;101055.76;;;14.34;79.87
63181;BME280;49273;37.772;-122.432;2022-07-01T04:39:12;101062.19;;;14.10;80.88
63181;BME280;49273;37.772;-122.432;2022-07-01T04:41:40;101056.33;;;13.91;81.69
63181;BME280;49273;37.772;-122.432;2022-07-01T04:44:08;101058.44;;;13.78;82.91
63181;BME280;49273;37.772;-122.432;2022-07-01T04:46:36;101059.06;;;14.08;81.73
63181;BME280;49273;37.772;-122.432;2022-07-01T04:49:04;101060.94;;;14.02;81.77
63181;BME280;49273;37.772;-122.432;2022-07-01T04:51:32;101068.17;;;14.18;81.32
63181;BME280;49273;37.772;-122.432;2022-07-01T04:54:01;101070.37;;;13.99;81.99
63181;BME280;49273;37.772;-122.432;2022-07-01T04:56:30;101070.78;;;14.23;81.41
63181;BME280;49273;37.772;-122.432;2022-07-01T04:58:58;101072.41;;;13.99;81.46
63181;BME280;49273;37.772;-122.432;2022-07-01T05:01:26;101078.43;;;13.99;82.27
63181;BME280;49273;37.772;-122.432;2022-07-01T05:03:55;101074.27;;;14.10;81.96
63181;BME280;49273;37.772;-122.432;2022-07-01T05:06:23;101074.01;;;13.88;82.54
63181;BME280;49273;37.772;-122.432;2022-07-01T05:08:51;101077.67;;;13.79;83.37
63181;BME280;49273;37.772;-122.432;2022-07-01T05:11:19;101079.31;;;13.70;84.15
63181;BME280;49273;37.772;-122.432;2022-07-01T05:13:47;101079.83;;;13.93;83.55
63181;BME280;49273;37.772;-122.432;2022-07-01T05:16:16;101084.83;;;13.74;84.53
63181;BME280;49273;37.772;-122.432;2022-07-01T05:18:43;101092.65;;;13.89;83.83
63181;BME280;49273;37.772;-122.432;2022-07-01T05:21:11;101083.10;;;13.84;84.19
63181;BME280;49273;37.772;-122.432;2022-07-01T05:23:39;101081.35;;;13.97;83.83
63181;BME280;49273;37.772;-122.432;2022-07-01T05:26:07;101096.92;;;13.81;84.61
63181;BME280;49273;37.772;-122.432;2022-07-01T05:28:35;101073.77;;;13.96;84.08
63181;BME280;49273;37.772;-122.432;2022-07-01T05:31:03;101085.46;;;13.97;83.95
63181;BME280;49273;37.772;-122.432;2022-07-01T05:33:31;101092.38;;;13.56;85.16
63181;BME280;49273;37.772;-122.432;2022-07-01T05:35:59;101087.95;;;13.91;84.26
63181;BME280;49273;37.772;-122.432;2022-07-01T05:38:27;101101.49;;;13.63;84.89
63181;BME280;49273;37.772;-122.432;2022-07-01T05:40:55;101100.63;;;13.55;85.94
63181;BME280;49273;37.772;-122.432;2022-07-01T05:43:24;101107.20;;;13.59;85.82
63181;BME280;49273;37.772;-122.432;2022-07-01T05:45:52;101110.70;;;13.69;85.58
63181;BME280;49273;37.772;-122.432;2022-07-01T05:48:19;101108.62;;;13.40;86.60
63181;BME280;49273;37.772;-122.432;2022-07-01T05:50:47;101118.63;;;13.58;86.58
63181;BME280;49273;37.772;-122.432;2022-07-01T05:53:15;101113.18;;;13.62;85.62
63181;BME280;49273;37.772;-122.432;2022-07-01T05:55:43;101113.82;;;13.57;85.59
63181;BME280;49273;37.772;-122.432;2022-07-01T05:58:11;101124.79;;;13.55;85.97
63181;BME280;49273;37.772;-122.432;2022-07-01T06:00:39;101121.09;;;13.67;86.41
63181;BME280;49273;37.772;-122.432;2022-07-01T06:03:07;101114.58;;;13.67;86.01
63181;BME280;49273;37.772;-122.432;2022-07-01T06:05:36;101118.85;;;13.68;86.14
63181;BME280;49273;37.772;-122.432;2022-07-01T06:08:04;101116.81;;;13.77;85.60
63181;BME280;49273;37.772;-122.432;2022-07-01T06:10:32;101103.68;;;13.48;86.71
63181;BME280;49273;37.772;-122.432;2022-07-01T06:13:01;101117.29;;;13.78;85.68
63181;BME280;49273;37.772;-122.432;2022-07-01T06:15:30;101119.17;;;13.74;86.07
63181;BME280;49273;37.772;-122.432;2022-07-01T06:17:59;101117.32;;;13.84;85.62
63181;BME280;49273;37.772;-122.432;2022-07-01T06:20:28;101112.32;;;13.90;85.37
63181;BME280;49273;37.772;-122.432;2022-07-01T06:22:56;101108.40;;;14.00;85.02
63181;BME280;49273;37.772;-122.432;2022-07-01T06:25:24;101109.05;;;13.87;84.61
63181;BME280;49273;37.772;-122.432;2022-07-01T06:27:52;101108.71;;;13.82;85.16
63181;BME280;49273;37.772;-122.432;2022-07-01T06:30:20;101111.69;;;13.86;85.25
63181;BME280;49273;37.772;-122.432;2022-07-01T06:32:48;101109.10;;;13.77;85.62
63181;BME280;49273;37.772;-122.432;2022-07-01T06:35:16;101106.89;;;13.84;85.44
63181;BME280;49273;37.772;-122.432;2022-07-01T06:37:44;101100.31;;;13.71;85.52
63181;BME280;49273;37.772;-122.432;2022-07-01T06:40:13;101103.18;;;13.68;85.78
63181;BME280;49273;37.772;-122.432;2022-07-01T06:42:41;101103.61;;;13.66;86.08
63181;BME280;49273;37.772;-122.432;2022-07-01T06:45:10;101101.48;;;13.77;85.67
63181;BME280;49273;37.772;-122.432;2022-07-01T06:47:38;101101.60;;;13.56;86.41
63181;BME280;49273;37.772;-122.432;2022-07-01T06:50:07;101104.27;;;13.78;86.67
63181;BME280;49273;37.772;-122.432;2022-07-01T06:52:35;101099.50;;;13.73;86.66
63181;BME280;49273;37.772;-122.432;2022-07-01T06:55:03;101101.84;;;13.40;87.70
63181;BME280;49273;37.772;-122.432;2022-07-01T06:57:31;101103.84;;;13.51;87.82
63181;BME280;49273;37.772;-122.432;2022-07-01T06:59:59;101100.08;;;13.64;86.70
63181;BME280;49273;37.772;-122.432;2022-07-01T07:02:28;101098.81;;;13.64;86.46
63181;BME280;49273;37.772;-122.432;2022-07-01T07:04:56;101104.43;;;13.64;86.88
63181;BME280;49273;37.772;-122.432;2022-07-01T07:07:24;101106.39;;;13.60;87.57
63181;BME280;49273;37.772;-122.432;2022-07-01T07:09:51;101100.91;;;13.55;87.22
63181;BME280;49273;37.772;-122.432;2022-07-01T07:12:19;101107.09;;;13.70;86.79
63181;BME280;49273;37.772;-122.432;2022-07-01T07:14:47;101109.45;;;13.57;87.01
63181;BME280;49273;37.772;-122.432;2022-07-01T07:17:15;101101.25;;;13.52;86.83
63181;BME280;49273;37.772;-122.432;2022-07-01T07:19:43;101109.15;;;13.50;87.20
63181;BME280;49273;37.772;-122.432;2022-07-01T07:22:11;101108.85;;;13.49;86.99
63181;BME280;49273;37.772;-122.432;2022-07-01T07:24:40;101103.11;;;13.38;87.56
63181;BME280;49273;37.772;-122.432;2022-07-01T07:27:07;101102.14;;;13.29;88.11
63181;BME280;49273;37.772;-122.432;2022-07-01T07:29:35;101103.68;;;13.75;86.86
63181;BME280;49273;37.772;-122.432;2022-07-01T07:32:04;101097.85;;;13.50;87.48
63181;BME280;49273;37.772;-122.432;2022-07-01T07:34:32;101094.53;;;13.60;86.90
63181;BME280;49273;37.772;-122.432;2022-07-01T07:37:00;101092.30;;;13.51;87.89
63181;BME280;49273;37.772;-122.432;2022-07-01T07:39:29;101094.65;;;13.58;87.63
63181;BME280;49273;37.772;-122.432;2022-07-01T07:41:57;101086.48;;;13.39;87.55
63181;BME280;49273;37.772;-122.432;2022-07-01T07:44:26;101084.20;;;13.41;87.57
63181;BME280;49273;37.772;-122.432;2022-07-01T07:46:54;101090.04;;;13.69;87.66
63181;BME280;49273;37.772;-122.432;2022-07-01T07:49:24;101087.05;;;13.48;87.39
63181;BME280;49273;37.772;-122.432;2022-07-01T07:51:52;101088.09;;;13.46;88.22
63181;BME280;49273;37.772;-122.432;2022-07-01T07:54:21;101081.26;;;13.39;88.40
63181;BME280;49273;37.772;-122.432;2022-07-01T07:56:48;101072.23;;;13.29;88.09
63181;BME280;49273;37.772;-122.432;2022-07-01T07:59:16;101078.67;;;13.20;88.93
63181;BME280;49273;37.772;-122.432;2022-07-01T08:01:44;101084.04;;;13.48;88.29
63181;BME280;49273;37.772;-122.432;2022-07-01T08:04:12;101079.72;;;13.34;87.98
63181;BME280;49273;37.772;-122.432;2022-07-01T08:06:41;101082.62;;;13.55;87.20
63181;BME280;49273;37.772;-122.432;2022-07-01T08:09:08;101087.78;;;13.71;87.14
63181;BME280;49273;37.772;-122.432;2022-07-01T08:11:36;101088.73;;;13.66;87.30
63181;BME280;49273;37.772;-122.432;2022-07-01T08:14:04;101088.13;;;13.50;87.72
63181;BME280;49273;37.772;-122.432;2022-07-01T08:16:33;101086.91;;;13.47;87.60
63181;BME280;49273;37.772;-122.432;2022-07-01T08:19:02;101084.79;;;13.20;88.55
63181;BME280;49273;37.772;-122.432;2022-07-01T08:21:31;101086.53;;;13.60;87.51
63181;BME280;49273;37.772;-122.432;2022-07-01T08:23:59;101083.34;;;13.61;87.32
63181;BME280;49273;37.772;-122.432;2022-07-01T08:26:28;101077.91;;;13.47;87.77
63181;BME280;49273;37.772;-122.432;2022-07-01T08:28:56;101081.76;;;13.51;87.67
63181;BME280;49273;37.772;-122.432;2022-07-01T08:31:25;101082.92;;;13.43;87.28
63181;BME280;49273;37.772;-122.432;2022-07-01T08:33:53;101093.31;;;13.60;87.37
63181;BME280;49273;37.772;-122.432;2022-07-01T08:36:21;101082.29;;;13.13;88.03
63181;BME280;49273;37.772;-122.432;2022-07-01T08:38:48;101081.00;;;13.39;88.09
63181;BME280;49273;37.772;-122.432;2022-07-01T08:41:17;101075.95;;;13.33;88.07
63181;BME280;49273;37.772;-122.432;2022-07-01T08:43:45;101081.71;;;13.56;88.00
63181;BME280;49273;37.772;-122.432;2022-07-01T08:46:13;101077.00;;;13.30;88.55
63181;BME280;49273;37.772;-122.432;2022-07-01T08:48:43;101078.61;;;13.47;88.09
63181;BME280;49273;37.772;-122.432;2022-07-01T08:51:11;101075.25;;;13.51;87.72
63181;BME280;49273;37.772;-122.432;2022-07-01T08:53:39;101082.29;;;13.36;88.15
63181;BME280;49273;37.772;-122.432;2022-07-01T08:56:08;101081.40;;;13.37;87.81
63181;BME280;49273;37.772;-122.432;2022-07-01T08:58:36;101082.23;;;13.35;87.54
63181;BME280;49273;37.772;-122.432;2022-07-01T09:01:21;101082.83;;;13.52;87.29
63181;BME280;49273;37.772;-122.432;2022-07-01T09:03:51;101072.11;;;13.08;88.85
63181;BME280;49273;37.772;-122.432;2022-07-01T09:06:21;101067.88;;;13.27;88.10
63181;BME280;49273;37.772;-122.432;2022-07-01T09:08:50;101066.96;;;13.32;87.83
63181;BME280;49273;37.772;-122.432;2022-07-01T09:11:20;101061.64;;;13.41;87.44
63181;BME280;49273;37.772;-122.432;2022-07-01T09:14:14;101060.22;;;13.48;87.81
63181;BME280;49273;37.772;-122.432;2022-07-01T09:16:43;101061.61;;;13.38;87.61
63181;BME280;49273;37.772;-122.432;2022-07-01T09:19:13;101060.88;;;13.39;88.33
63181;BME280;49273;37.772;-122.432;2022-07-01T09:21:42;101061.14;;;13.30;87.78
63181;BME280;49273;37.772;-122.432;2022-07-01T09:24:32;101059.75;;;13.30;88.03
63181;BME280;49273;37.772;-122.432;2022-07-01T09:27:02;101060.31;;;13.33;87.95
63181;BME280;49273;37.772;-122.432;2022-07-01T09:29:35;101057.36;;;13.63;87.62
63181;BME280;49273;37.772;-122.432;2022-07-01T09:32:05;101051.88;;;13.35;87.70
63181;BME280;49273;37.772;-122.432;2022-07-01T09:34:35;101054.84;;;13.47;87.86
63181;BME280;49273;37.772;-122.432;2022-07-01T09:37:04;101053.08;;;13.36;87.37
63181;BME280;49273;37.772;-122.432;2022-07-01T09:39:43;101058.93;;;13.41;87.09
63181;BME280;49273;37.772;-122.432;2022-07-01T09:42:11;101056.41;;;13.42;86.99
63181;BME280;49273;37.772;-122.432;2022-07-01T09:44:52;101056.47;;;13.66;86.21
63181;BME280;49273;37.772;-122.432;2022-07-01T09:47:23;101057.38;;;13.56;86.74
63181;BME280;49273;37.772;-122.432;2022-07-01T09:49:52;101057.98;;;13.24;87.65
63181;BME280;49273;37.772;-122.432;2022-07-01T09:52:20;101056.58;;;13.40;87.71
63181;BME280;49273;37.772;-122.432;2022-07-01T09:54:50;101055.52;;;13.65;86.74
63181;BME280;49273;37.772;-122.432;2022-07-01T09:57:19;101059.57;;;13.36;87.40
63181;BME280;49273;37.772;-122.432;2022-07-01T09:59:49;101057.74;;;13.48;86.78
63181;BME280;49273;37.772;-122.432;2022-07-01T10:02:18;101057.39;;;13.52;86.61
63181;BME280;49273;37.772;-122.432;2022-07-01T10:04:51;101057.05;;;13.32;87.62
63181;BME280;49273;37.772;-122.432;2022-07-01T10:07:35;101065.92;;;13.47;87.54
63181;BME280;49273;37.772;-122.432;2022-07-01T10:10:16;101065.51;;;13.42;87.40
63181;BME280;49273;37.772;-122.432;2022-07-01T10:12:51;101067.37;;;13.39;87.52
63181;BME280;49273;37.772;-122.432;2022-07-01T10:15:21;101074.70;;;13.58;86.90
63181;BME280;49273;37.772;-122.432;2022-07-01T10:17:51;101071.73;;;13.27;86.82
63181;BME280;49273;37.772;-122.432;2022-07-01T10:20:23;101072.02;;;13.27;87.58
63181;BME280;49273;37.772;-122.432;2022-07-01T10:23:00;101066.37;;;13.47;86.76
63181;BME280;49273;37.772;-122.432;2022-07-01T10:25:32;101075.13;;;13.44;87.38
63181;BME280;49273;37.772;-122.432;2022-07-01T10:28:42;101069.94;;;13.32;88.04
63181;BME280;49273;37.772;-122.432;2022-07-01T10:31:11;101069.13;;;13.04;88.36
63181;BME280;49273;37.772;-122.432;2022-07-01T10:33:46;101069.80;;;13.06;88.38
63181;BME280;49273;37.772;-122.432;2022-07-01T10:36:17;101073.24;;;13.21;87.95
63181;BME280;49273;37.772;-122.432;2022-07-01T10:39:24;101069.96;;;13.02;88.58
63181;BME280;49273;37.772;-122.432;2022-07-01T10:41:58;101062.03;;;12.94;88.71
63181;BME280;49273;37.772;-122.432;2022-07-01T10:44:27;101066.49;;;13.29;87.92
63181;BME280;49273;37.772;-122.432;2022-07-01T10:47:01;101068.20;;;13.12;88.24
63181;BME280;49273;37.772;-122.432;2022-07-01T10:50:06;101062.77;;;13.24;88.36
63181;BME280;49273;37.772;-122.432;2022-07-01T10:52:34;101066.62;;;13.37;87.95
63181;BME280;49273;37.772;-122.432;2022-07-01T10:55:04;101064.65;;;13.13;88.70
63181;BME280;49273;37.772;-122.432;2022-07-01T10:57:38;101066.02;;;13.34;88.80
63181;BME280;49273;37.772;-122.432;2022-07-01T11:00:41;101067.30;;;13.47;87.95
63181;BME280;49273;37.772;-122.432;2022-07-01T11:03:19;101067.31;;;13.43;87.34
63181;BME280;49273;37.772;-122.432;2022-07-01T11:05:52;101065.01;;;13.46;87.58
63181;BME280;49273;37.772;-122.432;2022-07-01T11:08:21;101062.19;;;13.52;87.00
63181;BME280;49273;37.772;-122.432;2022-07-01T11:10:54;101057.39;;;13.54;87.31
63181;BME280;49273;37.772;-122.432;2022-07-01T11:13:22;101056.14;;;13.55;87.03
63181;BME280;49273;37.772;-122.432;2022-07-01T11:15:50;101054.47;;;13.56;87.53
63181;BME280;49273;37.772;-122.432;2022-07-01T11:18:19;101053.51;;;13.69;86.32
63181;BME280;49273;37.772;-122.432;2022-07-01T11:20:47;101050.31;;;13.38;87.62
63181;BME280;49273;37.772;-122.432;2022-07-01T11:23:15;101048.72;;;13.37;87.72
63181;BME280;49273;37.772;-122.432;2022-07-01T11:25:43;101052.69;;;13.49;87.60
63181;BME280;49273;37.772;-122.432;2022-07-01T11:28:12;101049.90;;;13.52;86.60
63181;BME280;49273;37.772;-122.432;2022-07-01T11:30:40;101054.06;;;13.47;87.24
63181;BME280;49273;37.772;-122.432;2022-07-01T11:33:08;101056.10;;;13.51;86.92
63181;BME280;49273;37.772;-122.432;2022-07-01T11:35:37;101052.55;;;13.44;86.17
63181;BME280;49273;37.772;-122.432;2022-07-01T11:38:08;101051.63;;;13.60;85.76
63181;BME280;49273;37.772;-122.432;2022-07-01T11:40:36;101046.59;;;13.61;85.83
63181;BME280;49273;37.772;-122.432;2022-07-01T11:43:19;101041.73;;;13.29;86.81
63181;BME280;49273;37.772;-122.432;2022-07-01T11:45:48;101044.01;;;13.40;86.76
63181;BME280;49273;37.772;-122.432;2022-07-01T11:48:33;101046.98;;;13.44;86.95
63181;BME280;49273;37.772;-122.432;2022-07-01T11:51:05;101048.37;;;13.15;88.30
63181;BME280;49273;37.772;-122.432;2022-07-01T11:53:34;101050.20;;;13.32;87.18
63181;BME280;49273;37.772;-122.432;2022-07-01T11:56:02;101045.24;;;13.15;88.18
63181;BME280;49273;37.772;-122.432;2022-07-01T11:58:49;101046.56;;;13.20;87.81
63181;BME280;49273;37.772;-122.432;2022-07-01T12:01:23;101047.02;;;13.28;87.51
63181;BME280;49273;37.772;-122.432;2022-07-01T12:03:52;101049.38;;;13.24;87.47
63181;BME280;49273;37.772;-122.432;2022-07-01T12:06:20;101047.21;;;13.34;87.46
63181;BME280;49273;37.772;-122.432;2022-07-01T12:08:50;101048.61;;;13.65;86.36
63181;BME280;49273;37.772;-122.432;2022-07-01T12:11:19;101047.72;;;13.43;86.51
63181;BME280;49273;37.772;-122.432;2022-07-01T12:13:48;101042.67;;;13.70;86.45
63181;BME280;49273;37.772;-122.432;2022-07-01T12:16:17;101044.10;;;13.37;86.87
63181;BME280;49273;37.772;-122.432;2022-07-01T12:19:02;101046.20;;;13.50;86.30
63181;BME280;49273;37.772;-122.432;2022-07-01T12:21:36;101047.76;;;13.50;86.99
63181;BME280;49273;37.772;-122.432;2022-07-01T12:24:15;101050.25;;;13.23;87.30
63181;BME280;49273;37.772;-122.432;2022-07-01T12:26:49;101054.28;;;13.38;87.30
63181;BME280;49273;37.772;-122.432;2022-07-01T12:29:19;101057.20;;;13.36;87.29
63181;BME280;49273;37.772;-122.432;2022-07-01T12:31:56;101053.61;;;13.23;86.95
63181;BME280;49273;37.772;-122.432;2022-07-01T12:34:37;101061.97;;;13.37;86.79